Time;durP1;ratioP1;P1;durP2;ratioP2;P2;SDS_P1;SDS_P2;PMS_P1;PMS_P2;Temp;Humidity;BMP_temperature;BMP_pressure;BME280_temperature;BME280_humidity;BME280_pressure;Samples;Min_cycle;Max_cycle;Signal;HPM_P1;HPM_P2
2020/12/13 00:04:28;;;;;;;31.23;13.60;;;;;;;7.67;85.02;99373.41;8693020;33;20231;-73
2020/12/13 00:09:30;;;;;;;32.17;15.15;;;;;;;7.66;85.13;99381.53;8692689;33;20153;-71
2020/12/13 00:14:34;;;;;;;33.88;15.82;;;;;;;7.66;85.45;99379.69;8692959;33;20249;-72
2020/12/13 00:19:36;;;;;;;31.35;14.60;;;;;;;7.67;85.38;99377.88;8691359;33;20149;-72
2020/12/13 00:24:39;;;;;;;27.80;14.43;;;;;;;7.69;85.61;99378.63;8695794;33;20153;-71
2020/12/13 00:29:42;;;;;;;29.73;13.93;;;;;;;7.71;85.61;99382.03;8697318;33;20156;-71
2020/12/13 00:34:45;;;;;;;30.35;13.88;;;;;;;7.71;85.64;99382.88;8697802;33;20542;-72
2020/12/13 00:39:47;;;;;;;32.72;14.95;;;;;;;7.69;85.87;99384.81;8697144;33;20682;-74
2020/12/13 00:44:50;;;;;;;30.90;14.98;;;;;;;7.70;85.94;99394.47;8697346;33;20149;-72
2020/12/13 00:49:52;;;;;;;32.67;15.38;;;;;;;7.74;86.08;99397.78;8696945;33;20157;-72
2020/12/13 00:54:55;;;;;;;29.05;14.13;;;;;;;7.73;86.07;99396.94;8673065;33;20148;-72
2020/12/13 01:00:01;;;;;;;39.70;15.85;;;;;;;7.71;85.99;99404.16;8696473;33;20165;-71
2020/12/13 01:05:04;;;;;;;31.10;14.75;;;;;;;7.74;86.14;99413.72;8697534;33;20156;-74
2020/12/13 01:10:06;;;;;;;34.72;14.52;;;;;;;7.75;86.07;99424.25;8683539;28;20656;-75
2020/12/13 01:15:10;;;;;;;35.60;15.75;;;;;;;7.75;86.12;99418.91;8694408;33;20214;-77
2020/12/13 01:20:14;;;;;;;32.40;15.45;;;;;;;7.75;86.11;99432.22;8693577;33;20152;-75
2020/12/13 01:25:16;;;;;;;28.38;14.55;;;;;;;7.80;86.08;99446.03;8694027;33;20230;-77
2020/12/13 01:30:19;;;;;;;34.33;13.93;;;;;;;7.81;86.10;99449.53;8693730;33;20176;-77
2020/12/13 01:35:25;;;;;;;33.40;14.43;;;;;;;7.84;86.15;99451.97;8669452;33;20159;-77
2020/12/13 01:40:28;;;;;;;33.65;14.23;;;;;;;7.85;85.98;99453.72;8693300;33;20772;-76
2020/12/13 01:45:31;;;;;;;34.28;15.15;;;;;;;7.78;86.01;99449.75;8693534;33;20266;-76
2020/12/13 01:50:42;;;;;;;33.17;14.55;;;;;;;7.78;86.00;99452.44;8693059;33;20505;-76
2020/12/13 01:55:46;;;;;;;30.08;14.20;;;;;;;7.82;86.33;99461.91;8692982;33;20306;-77
2020/12/13 02:00:53;;;;;;;31.92;14.55;;;;;;;7.83;86.23;99460.94;8668687;33;20208;-76
2020/12/13 02:06:02;;;;;;;30.23;14.30;;;;;;;7.84;86.32;99469.75;8693459;33;20538;-74
2020/12/13 02:11:05;;;;;;;31.02;11.95;;;;;;;7.83;86.13;99468.06;8692848;33;20717;-76
2020/12/13 02:16:09;;;;;;;27.75;13.70;;;;;;;7.79;86.35;99470.09;8692720;33;20809;-76
2020/12/13 02:21:13;;;;;;;33.17;15.35;;;;;;;7.80;86.18;99474.44;8692667;33;20553;-76
2020/12/13 02:26:17;;;;;;;31.63;14.38;;;;;;;7.83;86.42;99471.56;8692828;33;20568;-76
2020/12/13 02:31:19;;;;;;;30.92;13.32;;;;;;;7.89;86.23;99481.78;8691089;33;20219;-76
2020/12/13 02:36:22;;;;;;;27.50;13.85;;;;;;;7.94;86.73;99492.94;8692398;33;20966;-77
2020/12/13 02:41:25;;;;;;;30.35;13.88;;;;;;;7.95;86.23;99497.31;8692845;33;20235;-75
2020/12/13 02:46:28;;;;;;;30.48;13.70;;;;;;;7.90;86.20;99495.91;8691886;33;20230;-76
2020/12/13 02:51:30;;;;;;;31.40;14.25;;;;;;;7.85;86.49;99503.38;8692151;33;20156;-77
2020/12/13 02:56:36;;;;;;;32.08;14.18;;;;;;;7.85;86.67;99503.38;8692140;33;20192;-77
2020/12/13 03:01:38;;;;;;;29.48;13.32;;;;;;;7.88;86.72;99508.50;8691988;33;20167;-77
2020/12/13 03:06:40;;;;;;;32.28;14.15;;;;;;;7.89;86.87;99511.03;8671979;33;20540;-77
2020/12/13 03:11:43;;;;;;;31.63;13.77;;;;;;;7.91;87.22;99526.88;8692228;33;20471;-77
2020/12/13 03:16:46;;;;;;;30.58;13.93;;;;;;;7.93;86.98;99522.31;8667986;33;20152;-77
2020/12/13 03:21:48;;;;;;;32.72;15.00;;;;;;;7.92;87.12;99540.06;8691739;33;20149;-77
2020/12/13 03:26:51;;;;;;;29.30;13.70;;;;;;;8.00;87.31;99535.06;8691897;33;20221;-77
2020/12/13 03:31:54;;;;;;;33.83;14.55;;;;;;;8.08;87.37;99531.03;8691708;33;20251;-77
2020/12/13 03:36:56;;;;;;;33.47;15.15;;;;;;;8.14;87.59;99533.25;8667205;33;20156;-76
2020/12/13 03:42:00;;;;;;;35.55;16.13;;;;;;;8.16;87.53;99532.19;8691458;33;20133;-76
2020/12/13 03:47:02;;;;;;;35.97;16.10;;;;;;;8.15;87.59;99542.94;8691234;33;20145;-76
2020/12/13 03:52:05;;;;;;;38.65;15.55;;;;;;;8.19;87.65;99549.75;8691016;33;20153;-76
2020/12/13 03:57:08;;;;;;;39.97;16.70;;;;;;;8.21;87.72;99553.16;8693324;33;20759;-75
2020/12/13 04:02:11;;;;;;;34.65;16.05;;;;;;;8.24;87.76;99566.25;8695054;33;20711;-77
2020/12/13 04:07:13;;;;;;;30.23;14.68;;;;;;;8.28;87.79;99569.53;8696409;33;20164;-76
2020/12/13 04:12:16;;;;;;;35.55;16.02;;;;;;;8.31;87.85;99571.97;8672172;33;20281;-76
2020/12/13 04:17:19;;;;;;;39.03;16.17;;;;;;;8.28;87.81;99573.03;8696114;33;20571;-75
2020/12/13 04:22:23;;;;;;;39.78;16.70;;;;;;;8.33;87.92;99572.72;8695686;33;20152;-77
2020/12/13 04:27:26;;;;;;;42.00;17.10;;;;;;;8.29;87.80;99576.56;8696001;33;20214;-77
2020/12/13 04:32:29;;;;;;;55.33;20.35;;;;;;;8.34;87.88;99574.44;8695822;33;20141;-77
2020/12/13 04:37:31;;;;;;;47.15;17.58;;;;;;;8.42;87.84;99583.63;8694989;33;20170;-75
2020/12/13 04:42:37;;;;;;;54.58;18.73;;;;;;;8.44;87.80;99589.66;8695519;33;20542;-75
2020/12/13 04:47:49;;;;;;;52.40;19.63;;;;;;;8.51;87.98;99587.44;8695193;33;20214;-75
2020/12/13 04:52:57;;;;;;;58.72;22.15;;;;;;;8.56;87.61;99587.97;8694932;33;20238;-75
2020/12/13 04:58:00;;;;;;;61.83;21.88;;;;;;;8.60;88.06;99597.41;8694999;33;20243;-75
2020/12/13 05:03:04;;;;;;;54.15;20.13;;;;;;;8.68;87.82;99603.06;8670441;33;20144;-76
2020/12/13 05:08:06;;;;;;;55.90;20.83;;;;;;;8.67;87.96;99608.50;8669571;33;20153;-76
2020/12/13 05:13:11;;;;;;;58.88;21.35;;;;;;;8.67;88.09;99621.81;8693918;33;20585;-76
2020/12/13 05:18:13;;;;;;;59.25;21.80;;;;;;;8.72;88.08;99621.47;8694121;33;20247;-75
2020/12/13 05:23:18;;;;;;;61.17;22.85;;;;;;;8.75;88.22;99624.78;8669706;33;20141;-75
2020/12/13 05:28:25;;;;;;;67.53;21.70;;;;;;;8.79;88.09;99634.25;8695155;33;20156;-76
2020/12/13 05:33:30;;;;;;;64.65;23.45;;;;;;;8.81;88.22;99635.00;8694137;33;20149;-75
2020/12/13 05:38:34;;;;;;;65.25;23.42;;;;;;;8.80;88.21;99638.63;8693788;33;20149;-75
2020/12/13 05:43:41;;;;;;;62.92;23.17;;;;;;;8.80;88.20;99638.63;8693612;33;20243;-75
2020/12/13 05:49:02;;;;;;;46.22;15.95;;;;;;;8.75;88.41;99647.88;8694080;33;20500;-75
2020/12/13 05:54:10;;;;;;;49.88;19.60;;;;;;;8.77;88.34;99646.81;8694673;33;20149;-75
2020/12/13 05:59:14;;;;;;;56.03;19.45;;;;;;;8.77;88.34;99646.81;8697168;33;20470;-77
2020/12/13 06:04:19;;;;;;;57.33;19.75;;;;;;;8.77;88.45;99643.31;8698384;33;20149;-77
2020/12/13 06:09:32;;;;;;;56.05;19.67;;;;;;;8.79;88.37;99660.88;8669840;33;20182;-74
2020/12/13 06:14:37;;;;;;;52.65;18.25;;;;;;;8.83;88.24;99666.81;8693660;33;20230;-74
2020/12/13 06:19:41;;;;;;;60.42;20.05;;;;;;;8.76;88.55;99669.09;8669177;33;20266;-76
2020/12/13 06:24:46;;;;;;;54.20;21.27;;;;;;;8.79;88.77;99673.34;8694155;33;20244;-76
2020/12/13 06:29:50;;;;;;;47.92;18.45;;;;;;;8.79;88.30;99687.50;8695994;33;20914;-77
2020/12/13 06:34:56;;;;;;;44.83;17.55;;;;;;;8.72;88.48;99688.03;8704358;33;20239;-77
2020/12/13 06:39:58;;;;;;;58.80;18.98;;;;;;;8.71;88.45;99695.19;8695988;33;20141;-76
2020/12/13 06:45:07;;;;;;;60.85;21.50;;;;;;;8.77;88.46;99708.06;8694269;33;20622;-76
2020/12/13 06:50:11;;;;;;;60.97;21.27;;;;;;;8.75;88.68;99704.69;8692841;33;20243;-76
2020/12/13 06:55:14;;;;;;;56.05;21.15;;;;;;;8.81;88.38;99714.06;8669657;33;20156;-76
2020/12/13 07:00:17;;;;;;;59.13;20.70;;;;;;;8.84;88.33;99724.50;8670100;33;20212;-75
2020/12/13 07:05:20;;;;;;;54.28;20.80;;;;;;;8.76;88.51;99729.50;8695069;33;20808;-77
2020/12/13 07:10:22;;;;;;;55.60;20.50;;;;;;;8.70;88.64;99732.59;8686474;28;20242;-75
2020/12/13 07:15:32;;;;;;;56.10;19.75;;;;;;;8.74;88.48;99736.72;8670158;33;20160;-75
2020/12/13 07:20:35;;;;;;;58.63;21.55;;;;;;;8.67;88.79;99745.16;8693455;33;20184;-74
2020/12/13 07:25:37;;;;;;;57.25;19.17;;;;;;;8.78;88.28;99749.75;8693775;33;20153;-72
2020/12/13 07:30:40;;;;;;;62.70;19.65;;;;;;;8.78;88.39;99755.06;8694393;33;20730;-74
2020/12/13 07:35:43;;;;;;;56.03;19.05;;;;;;;8.84;88.18;99753.78;8698746;33;20376;-74
2020/12/13 07:40:45;;;;;;;61.67;19.77;;;;;;;8.76;88.23;99761.47;8698173;33;20677;-74
2020/12/13 07:45:48;;;;;;;56.50;20.00;;;;;;;8.79;88.00;99764.75;8698730;33;20141;-74
2020/12/13 07:50:50;;;;;;;56.50;19.08;;;;;;;8.65;88.20;99779.03;8698037;33;20156;-74
2020/12/13 07:55:53;;;;;;;58.38;20.85;;;;;;;8.59;88.29;99789.25;8698493;33;20322;-74
2020/12/13 08:01:09;;;;;;;58.28;20.52;;;;;;;8.78;87.91;99794.19;8698019;33;20664;-73
2020/12/13 08:06:15;;;;;;;57.33;19.48;;;;;;;8.77;87.92;99801.28;8718830;33;20148;-73
2020/12/13 08:11:17;;;;;;;51.08;17.10;;;;;;;8.78;87.59;99799.50;8676642;33;20692;-72
2020/12/13 08:16:25;;;;;;;52.35;18.63;;;;;;;8.67;87.83;99814.41;8702672;33;21004;-72
2020/12/13 08:21:52;;;;;;;50.00;17.67;;;;;;;8.75;87.08;99819.22;8698005;33;20141;-73
2020/12/13 08:26:57;;;;;;;50.67;15.95;;;;;;;8.74;87.39;99829.94;8697918;33;20141;-73
2020/12/13 08:32:12;;;;;;;53.28;18.45;;;;;;;8.77;87.33;99840.38;8697218;33;20152;-75
2020/12/13 08:37:23;;;;;;;49.33;18.38;;;;;;;8.88;87.01;99844.03;8690146;33;20415;-75
2020/12/13 08:42:25;;;;;;;50.75;16.50;;;;;;;8.88;87.09;99854.69;8693221;33;20199;-72
2020/12/13 08:47:32;;;;;;;40.88;14.30;;;;;;;8.94;86.89;99845.44;8672937;33;20176;-73
2020/12/13 08:52:35;;;;;;;46.42;16.80;;;;;;;8.86;86.78;99858.44;8695821;33;20537;-73
2020/12/13 08:57:45;;;;;;;55.75;17.90;;;;;;;9.00;86.86;99860.16;8695132;33;20255;-74
2020/12/13 09:02:59;;;;;;;46.80;17.52;;;;;;;9.06;86.79;99871.22;8672287;33;20149;-74
2020/12/13 09:08:02;;;;;;;58.05;18.75;;;;;;;9.06;86.58;99868.56;8695900;33;20290;-74
2020/12/13 09:13:06;;;;;;;45.35;16.27;;;;;;;9.26;86.95;99877.00;8695237;33;20214;-72
2020/12/13 09:18:11;;;;;;;49.05;18.00;;;;;;;9.45;86.76;99879.22;8671558;33;20199;-72
2020/12/13 09:23:20;;;;;;;52.78;19.73;;;;;;;9.70;86.43;99884.53;8695263;33;20286;-74
2020/12/13 09:28:23;;;;;;;54.20;17.55;;;;;;;9.78;86.29;99892.84;8695460;33;20712;-73
2020/12/13 09:33:26;;;;;;;47.08;16.40;;;;;;;9.66;85.39;99898.22;8695016;33;20152;-72
2020/12/13 09:38:28;;;;;;;45.50;16.90;;;;;;;9.56;84.89;99898.84;8695166;33;20172;-74
2020/12/13 09:43:31;;;;;;;44.72;17.42;;;;;;;9.63;85.17;99909.09;8693650;33;20156;-74
2020/12/13 09:48:34;;;;;;;37.97;16.67;;;;;;;9.64;84.30;99910.78;8694043;33;20172;-74
2020/12/13 09:53:36;;;;;;;36.95;15.90;;;;;;;9.80;85.17;99917.59;8694426;33;20145;-74
2020/12/13 09:58:39;;;;;;;45.30;18.00;;;;;;;9.92;84.83;99917.69;8670321;33;20306;-74
2020/12/13 10:03:45;;;;;;;41.55;16.33;;;;;;;9.82;84.68;99924.63;8694609;33;20155;-71
2020/12/13 10:09:06;;;;;;;43.50;16.35;;;;;;;9.73;84.36;99915.47;8694421;33;20462;-74
2020/12/13 10:14:11;;;;;;;45.20;16.30;;;;;;;9.62;84.31;99918.03;8694310;33;20637;-73
2020/12/13 10:19:14;;;;;;;40.30;16.17;;;;;;;9.73;84.21;99931.47;8693842;33;20200;-72
2020/12/13 10:24:17;;;;;;;44.30;16.63;;;;;;;9.69;83.80;99930.84;8692042;33;20908;-72
2020/12/13 10:29:19;;;;;;;52.78;18.08;;;;;;;9.64;84.22;99934.81;8693584;33;20152;-72
2020/12/13 10:34:23;;;;;;;41.72;17.02;;;;;;;9.58;84.04;99936.94;8694146;33;20462;-72
2020/12/13 10:39:25;;;;;;;52.95;17.38;;;;;;;9.56;85.11;99928.19;8693136;33;20153;-72
2020/12/13 10:44:27;;;;;;;46.17;17.83;;;;;;;9.61;85.01;99925.19;8693859;33;20238;-72
2020/12/13 10:49:30;;;;;;;45.95;16.98;;;;;;;9.53;84.98;99927.53;8694296;33;20263;-72
2020/12/13 10:54:33;;;;;;;46.65;18.00;;;;;;;9.52;85.25;99933.84;8694255;33;20158;-72
2020/12/13 10:59:35;;;;;;;47.72;17.60;;;;;;;9.48;85.37;99943.00;8693229;33;20726;-71
2020/12/13 11:04:38;;;;;;;57.83;18.42;;;;;;;9.44;85.48;99936.19;8693543;33;20156;-71
2020/12/13 11:09:40;;;;;;;51.92;19.73;;;;;;;9.47;85.82;99935.97;8693039;33;20171;-72
2020/12/13 11:14:42;;;;;;;50.80;17.63;;;;;;;9.50;85.91;99933.09;8669086;33;20145;-72
2020/12/13 11:19:46;;;;;;;50.65;17.80;;;;;;;9.58;86.00;99934.25;8693225;33;20533;-72
2020/12/13 11:24:48;;;;;;;53.95;18.15;;;;;;;9.64;85.91;99946.31;8693519;33;20167;-72
2020/12/13 11:29:50;;;;;;;51.88;18.27;;;;;;;9.73;85.90;99926.97;8669968;33;20151;-72
2020/12/13 11:34:58;;;;;;;55.28;17.35;;;;;;;9.88;85.55;99937.56;8693527;33;20186;-73
2020/12/13 11:40:01;;;;;;;56.67;19.90;;;;;;;9.89;85.11;99936.59;8692820;33;20145;-74
2020/12/13 11:45:04;;;;;;;56.80;19.05;;;;;;;9.97;84.46;99936.88;8669405;33;20295;-72
2020/12/13 11:50:09;;;;;;;55.60;18.80;;;;;;;9.96;84.15;99932.53;8692486;33;20195;-74
2020/12/13 11:55:11;;;;;;;59.65;19.25;;;;;;;9.89;84.10;99940.09;8668538;33;20145;-72
2020/12/13 12:00:14;;;;;;;56.20;18.63;;;;;;;9.90;84.02;99933.81;8692050;33;20803;-72
2020/12/13 12:05:17;;;;;;;56.55;18.83;;;;;;;9.94;84.01;99945.97;8693249;33;20228;-72
2020/12/13 12:10:19;;;;;;;56.45;18.60;;;;;;;9.94;83.80;99939.78;8692307;33;20637;-71
2020/12/13 12:15:22;;;;;;;48.83;17.45;;;;;;;10.06;84.10;99940.72;8668385;33;20242;-71
2020/12/13 12:20:27;;;;;;;42.05;18.17;;;;;;;9.77;83.68;99931.16;8696599;33;20239;-72
2020/12/13 12:25:34;;;;;;;50.30;17.40;;;;;;;9.86;83.48;99955.47;8697403;33;20149;-73
2020/12/13 12:30:37;;;;;;;46.45;17.42;;;;;;;9.88;83.61;99948.22;8697345;33;20448;-71
2020/12/13 12:35:42;;;;;;;48.53;17.00;;;;;;;9.75;83.61;99943.75;8697618;33;20230;-74
2020/12/13 12:40:44;;;;;;;46.55;17.48;;;;;;;9.84;83.65;99939.56;8697074;33;20148;-71
2020/12/13 12:45:46;;;;;;;48.55;17.00;;;;;;;9.87;84.07;99946.50;8695163;33;20255;-73
2020/12/13 12:50:50;;;;;;;47.03;19.70;;;;;;;9.75;84.03;99949.09;8696301;33;20670;-73
2020/12/13 12:55:52;;;;;;;60.80;20.02;;;;;;;9.82;84.02;99953.97;8696225;33;20184;-74
2020/12/13 13:00:56;;;;;;;42.75;18.70;;;;;;;9.79;83.72;99952.41;8695448;33;20652;-73
2020/12/13 13:06:04;;;;;;;56.20;19.40;;;;;;;9.83;83.62;99964.56;8696162;33;20593;-73
2020/12/13 13:11:10;;;;;;;53.33;20.40;;;;;;;9.82;83.71;99964.66;8748527;27;20357;-74
2020/12/13 13:16:15;;;;;;;57.85;21.30;;;;;;;9.64;83.79;99970.31;8751488;33;20156;-74
2020/12/13 13:21:22;;;;;;;37.22;14.75;;;;;;;9.31;84.73;99984.16;8707199;33;20148;-75
2020/12/13 13:26:25;;;;;;;58.40;21.25;;;;;;;9.17;85.66;99981.59;8691752;33;20625;-75
2020/12/13 13:31:28;;;;;;;55.58;19.65;;;;;;;9.04;85.57;99978.88;8694024;33;20141;-74
2020/12/13 13:36:31;;;;;;;59.30;24.10;;;;;;;9.18;85.40;99999.28;8694376;33;20156;-74
2020/12/13 13:41:35;;;;;;;72.50;26.42;;;;;;;8.94;85.65;99999.09;8691692;33;20149;-74
2020/12/13 13:46:57;;;;;;;65.32;26.05;;;;;;;8.92;85.83;100020.53;8690842;33;20287;-74
2020/12/13 13:52:01;;;;;;;61.90;22.27;;;;;;;9.03;85.13;100017.16;8666309;33;20215;-74
2020/12/13 13:57:05;;;;;;;60.72;24.08;;;;;;;9.07;85.09;100011.50;8669306;33;20156;-74
2020/12/13 14:02:07;;;;;;;71.07;24.83;;;;;;;9.07;84.83;100008.84;8694147;33;20190;-75
2020/12/13 14:07:34;;;;;;;70.75;23.70;;;;;;;9.24;84.62;100015.72;8693300;33;20276;-74
2020/12/13 14:12:36;;;;;;;67.07;24.02;;;;;;;9.29;83.39;100024.25;8668241;33;20141;-74
2020/12/13 14:17:39;;;;;;;57.60;21.85;;;;;;;9.41;83.34;100022.59;8693054;33;20153;-74
2020/12/13 14:22:42;;;;;;;64.05;23.63;;;;;;;9.49;83.14;100030.91;8692846;33;20151;-74
2020/12/13 14:27:44;;;;;;;52.30;19.58;;;;;;;9.41;82.40;100024.41;8692565;33;20177;-74
2020/12/13 14:32:47;;;;;;;56.63;21.58;;;;;;;9.37;82.59;100025.56;8692487;33;20634;-74
2020/12/13 14:37:50;;;;;;;52.13;22.20;;;;;;;9.29;83.03;100028.72;8692325;33;20785;-75
2020/12/13 14:42:52;;;;;;;54.78;21.92;;;;;;;9.17;82.38;100024.22;8691281;33;20719;-74
2020/12/13 14:47:58;;;;;;;52.63;19.13;;;;;;;9.18;82.88;100021.44;8692223;33;20290;-74
2020/12/13 14:53:04;;;;;;;47.90;18.17;;;;;;;9.12;82.36;100030.72;8691912;33;20145;-75
2020/12/13 14:58:06;;;;;;;53.80;20.00;;;;;;;8.94;82.43;100028.41;8692048;33;20202;-74
2020/12/13 15:03:15;;;;;;;45.28;18.52;;;;;;;8.82;81.55;100028.25;8691419;33;20300;-74
2020/12/13 15:08:18;;;;;;;42.17;16.35;;;;;;;8.75;81.25;100044.72;8691436;33;20603;-74
2020/12/13 15:13:27;;;;;;;40.90;15.55;;;;;;;8.62;81.64;100045.53;8691517;33;20240;-73
2020/12/13 15:18:33;;;;;;;40.25;17.52;;;;;;;8.65;81.72;100049.81;8695930;33;20825;-74
2020/12/13 15:23:36;;;;;;;36.28;15.63;;;;;;;8.68;81.89;100049.59;8691725;33;20731;-75
2020/12/13 15:28:39;;;;;;;38.22;16.13;;;;;;;8.71;81.94;100046.75;8692354;33;20299;-74
2020/12/13 15:33:41;;;;;;;38.50;15.45;;;;;;;8.76;82.16;100049.97;8692061;33;20140;-74
2020/12/13 15:38:44;;;;;;;35.95;16.15;;;;;;;8.76;82.37;100057.94;8698547;33;20251;-74
2020/12/13 15:43:46;;;;;;;42.15;16.40;;;;;;;8.69;82.23;100059.28;8693945;33;20138;-74
2020/12/13 15:48:49;;;;;;;36.42;15.70;;;;;;;8.72;82.37;100059.13;8691052;33;20171;-74
2020/12/13 15:53:52;;;;;;;37.85;14.93;;;;;;;8.73;82.60;100060.81;8693752;33;20149;-73
2020/12/13 15:58:54;;;;;;;41.70;16.33;;;;;;;8.71;82.76;100053.88;8696020;33;20251;-74
2020/12/13 16:03:58;;;;;;;37.85;15.23;;;;;;;8.66;82.71;100059.50;8696439;33;20280;-74
2020/12/13 16:09:03;;;;;;;38.03;15.95;;;;;;;8.64;83.00;100064.09;8695925;33;20164;-74
2020/12/13 16:14:05;;;;;;;36.60;15.55;;;;;;;8.57;83.02;100060.94;8696194;33;20125;-74
2020/12/13 16:19:07;;;;;;;32.85;14.50;;;;;;;8.52;83.20;100063.03;8695949;33;20257;-74
2020/12/13 16:24:11;;;;;;;37.97;15.02;;;;;;;8.50;83.19;100059.63;8696735;33;20152;-75
2020/12/13 16:29:14;;;;;;;30.92;13.43;;;;;;;8.44;83.25;100066.19;8696860;33;20853;-75
2020/12/13 16:34:16;;;;;;;30.98;13.68;;;;;;;8.40;83.39;100064.69;8696236;33;20149;-75
2020/12/13 16:39:24;;;;;;;32.35;13.32;;;;;;;8.34;83.39;100062.38;8695568;33;20725;-75
2020/12/13 16:44:32;;;;;;;35.65;13.98;;;;;;;8.31;83.95;100057.25;8696219;33;20228;-75
2020/12/13 16:49:45;;;;;;;32.10;15.45;;;;;;;8.32;84.07;100068.75;8695477;33;20535;-74
2020/12/13 16:54:48;;;;;;;36.15;14.93;;;;;;;8.31;84.19;100072.34;8671090;33;20607;-75
2020/12/13 16:59:51;;;;;;;28.88;14.63;;;;;;;8.32;83.84;100071.41;8670956;33;20846;-74
2020/12/13 17:04:53;;;;;;;27.08;13.15;;;;;;;8.42;83.57;100069.91;8694899;33;20280;-74
2020/12/13 17:09:58;;;;;;;31.30;12.13;;;;;;;8.45;82.86;100083.03;8670391;33;20168;-75
2020/12/13 17:15:00;;;;;;;27.15;11.88;;;;;;;8.50;82.66;100070.28;8694931;33;20550;-75
2020/12/13 17:20:04;;;;;;;28.77;12.55;;;;;;;8.54;81.88;100071.78;8694351;33;20680;-75
2020/12/13 17:25:08;;;;;;;25.85;11.35;;;;;;;8.58;81.36;100067.13;8668562;33;20159;-73
2020/12/13 17:30:10;;;;;;;27.70;11.85;;;;;;;8.64;80.57;100064.94;8693796;33;20140;-74
2020/12/13 17:35:33;;;;;;;23.85;11.93;;;;;;;8.65;80.29;100057.78;8694999;33;21350;-73
2020/12/13 17:40:36;;;;;;;24.27;11.32;;;;;;;8.67;79.45;100069.22;8694954;33;20560;-73
2020/12/13 17:45:38;;;;;;;19.33;10.50;;;;;;;8.64;78.82;100069.41;8694564;33;20695;-74
2020/12/13 17:56:12;;;;;;;16.60;8.57;;;;;;;8.68;78.02;100046.94;8685454;33;20145;-74
2020/12/13 18:01:14;;;;;;;19.17;8.73;;;;;;;8.58;77.80;100053.78;8670206;33;20223;-74
2020/12/13 18:06:22;;;;;;;15.05;8.68;;;;;;;8.48;78.50;100044.72;8695137;33;20148;-74
2020/12/13 18:11:25;;;;;;;16.70;9.02;;;;;;;8.38;78.17;100039.06;8694127;33;20474;-74
2020/12/13 18:16:28;;;;;;;17.27;9.27;;;;;;;8.26;78.01;100035.38;8694711;33;20296;-74
2020/12/13 18:21:31;;;;;;;17.92;9.25;;;;;;;8.13;78.51;100042.41;8693524;33;20653;-74
2020/12/13 18:26:34;;;;;;;18.02;9.50;;;;;;;8.01;78.30;100036.06;8694078;33;20180;-74
2020/12/13 18:31:36;;;;;;;23.05;12.23;;;;;;;7.95;78.57;100031.09;8693753;33;20186;-74
2020/12/13 18:36:39;;;;;;;17.02;10.27;;;;;;;7.85;78.47;100030.81;8669897;33;20153;-74
2020/12/13 18:41:42;;;;;;;25.30;14.23;;;;;;;7.73;78.55;100023.56;8669485;33;20148;-74
2020/12/13 18:46:47;;;;;;;27.02;16.10;;;;;;;7.66;78.82;100014.28;8697206;33;20156;-74
2020/12/13 18:51:50;;;;;;;18.88;12.25;;;;;;;7.57;78.61;100027.16;8692987;33;20151;-74
2020/12/13 18:56:53;;;;;;;24.08;12.70;;;;;;;7.47;78.56;100023.34;8693246;33;20144;-74
2020/12/13 19:01:58;;;;;;;20.58;10.52;;;;;;;7.39;78.77;100022.94;8692684;33;20250;-74
2020/12/13 19:07:03;;;;;;;19.63;10.93;;;;;;;7.35;78.84;100037.38;8693215;33;20656;-74
2020/12/13 19:12:06;;;;;;;22.23;10.88;;;;;;;7.27;78.93;100036.97;8761625;28;20247;-73
2020/12/13 19:17:09;;;;;;;17.52;9.48;;;;;;;7.17;78.86;100039.31;8751812;33;20539;-73
2020/12/13 19:22:12;;;;;;;18.25;10.38;;;;;;;7.15;79.29;100043.84;8709410;33;20783;-73
2020/12/13 19:27:16;;;;;;;30.27;13.82;;;;;;;7.17;79.30;100043.75;8694690;33;20243;-72
2020/12/13 19:32:18;;;;;;;18.02;10.15;;;;;;;7.16;79.14;100044.69;8673961;33;20153;-73
2020/12/13 19:37:21;;;;;;;22.20;11.45;;;;;;;7.15;78.66;100058.94;8698677;33;20206;-72
2020/12/13 19:42:25;;;;;;;16.30;8.73;;;;;;;7.22;78.28;100052.31;8673675;33;20176;-71
2020/12/13 19:47:29;;;;;;;12.55;7.45;;;;;;;7.23;76.89;100054.03;8697550;33;20144;-71
2020/12/13 19:52:31;;;;;;;13.20;7.43;;;;;;;7.39;75.55;100065.47;8718994;33;20144;-70
2020/12/13 19:57:35;;;;;;;8.45;5.32;;;;;;;7.52;74.08;100062.97;8755715;33;20440;-71
2020/12/13 20:02:40;;;;;;;7.78;4.65;;;;;;;7.65;73.22;100058.63;8709508;33;20205;-72
2020/12/13 20:07:43;;;;;;;4.65;3.58;;;;;;;7.76;71.72;100056.16;8702995;33;20171;-72
2020/12/13 20:12:46;;;;;;;5.75;3.47;;;;;;;7.92;70.97;100058.72;8723989;33;20227;-72
2020/12/13 20:18:16;;;;;;;4.95;3.53;;;;;;;8.01;71.18;100058.19;8700022;33;20168;-70
2020/12/13 20:56:16;;;;;;;6.13;3.47;;;;;;;8.02;70.84;100043.94;8672836;33;20704;-73
2020/12/13 21:12:29;;;;;;;9.38;4.68;;;;;;;7.92;71.55;99996.69;8670238;33;20149;-74
2020/12/13 21:17:45;;;;;;;6.25;4.53;;;;;;;7.84;71.89;99991.00;8695281;33;20156;-71
2020/12/13 21:22:51;;;;;;;8.90;4.55;;;;;;;7.82;72.21;100003.56;8695947;33;20462;-74
2020/12/13 21:28:43;;;;;;;6.90;4.40;;;;;;;7.80;72.43;99990.34;8696439;33;20153;-73
2020/12/13 21:44:27;;;;;;;6.72;4.30;;;;;;;7.59;73.75;100008.47;8695919;33;20214;-74
2020/12/13 22:00:39;;;;;;;7.75;4.38;;;;;;;7.66;74.21;100033.75;8695035;33;20294;-72
2020/12/13 22:27:11;;;;;;;10.18;5.70;;;;;;;7.93;74.01;100009.06;8694982;33;20239;-73
2020/12/13 22:32:13;;;;;;;9.27;6.40;;;;;;;8.04;73.66;99992.44;8694419;33;20645;-73
2020/12/13 22:37:17;;;;;;;10.88;6.28;;;;;;;8.05;73.57;99971.03;8694761;33;20153;-74
2020/12/13 22:42:20;;;;;;;8.38;5.18;;;;;;;7.95;73.73;99957.50;8694159;33;20630;-71
2020/12/13 22:47:22;;;;;;;10.23;6.35;;;;;;;7.96;73.85;99961.84;8694730;33;20152;-72
2020/12/13 22:52:25;;;;;;;12.60;5.78;;;;;;;8.02;73.53;99965.94;8694061;33;20141;-70
2020/12/13 22:57:28;;;;;;;11.13;5.50;;;;;;;8.02;73.34;99961.44;8694674;33;20187;-71
2020/12/13 23:02:30;;;;;;;10.15;6.15;;;;;;;8.08;73.03;99941.59;8695199;33;20145;-70
2020/12/13 23:07:33;;;;;;;13.10;6.22;;;;;;;7.94;73.17;99930.97;8694574;33;20184;-71
2020/12/13 23:12:36;;;;;;;9.68;5.78;;;;;;;8.04;72.43;99936.56;8694092;33;20573;-72
2020/12/13 23:17:38;;;;;;;10.32;5.65;;;;;;;7.99;72.45;99936.84;8693984;33;20525;-70
2020/12/13 23:22:41;;;;;;;6.75;4.22;;;;;;;7.99;72.15;99955.47;8693466;33;20164;-70
2020/12/13 23:27:46;;;;;;;10.55;5.88;;;;;;;8.09;71.75;99951.28;8692807;33;20156;-74
2020/12/13 23:32:50;;;;;;;10.55;5.72;;;;;;;8.07;71.64;99942.56;8692708;33;20145;-71
2020/12/13 23:37:54;;;;;;;11.15;5.32;;;;;;;8.08;71.48;99941.59;8692861;33;20552;-70
2020/12/13 23:42:56;;;;;;;7.47;4.72;;;;;;;8.01;71.59;99938.47;8692338;33;20153;-73
2020/12/13 23:47:59;;;;;;;9.68;4.40;;;;;;;7.97;71.70;99934.28;8692660;33;20141;-71
2020/12/13 23:53:02;;;;;;;7.95;5.13;;;;;;;8.01;71.41;99924.31;8691219;33;20227;-72
2020/12/13 23:58:04;;;;;;;8.23;4.95;;;;;;;7.92;71.32;99909.78;8692167;33;20156;-70
